Terminal Aerodrome Forecast
Issued by NWS Austin/San Antonio, TX

Home | Current Version | Previous Version | Text Only | Print | Product List | Glossary On
Versions: 1 2 3 4 5 6 7 8 9 10 11 12 13 14
000
FTUS44 KEWX 272300 RRA
TAFDRT
TAF
KDRT 272341Z 2800/2824 33012G21KT P6SM OVC035
     FM280400 34009G15KT P6SM OVC050
     FM281300 32007KT P6SM OVC030
     FM281600 30006KT P6SM SCT060=

USA.gov is the U.S. government's official web portal to all federal, state and local government web resources and services.